Exu, Brazil
Current Conditions -  °F | °C
As of 9:00 PM on Tuesday 21 Oct 2014 (Local Time) from SBJU Reporting Station
Clear Clear  
Wind Chill: 90°   Ceiling: Unl
Heat Index: 93°   Visibility: 6mi
Dew Point: 68°   Wind: 3mph
Humidity: 49%   Direction: 230°SW
Pressure: 30"   Gusts: NA
Location:  7.51°S, 39.71°W
Report Text: SBJU 220000Z 23003KT CAVOK 32/20 Q1016
Loading
Personal Weather Stations






























Interactive Weather Map
Tropical Storm Tracking
New forecast layout! Learn more

10-Day Weather Forecast

Advertisements
Track Severe Weather on mobile